Latest Weather Observations for Mackay Airport

IDQ60801

Issued at 3:52 pm EST Monday 26 September 2022 (issued every 10 minutes, with the page automatically refreshed every 10 minutes)

About weather observations | Map of weather stations | Latest weather observations for QLD | Other Formats
Station Details ID: 033045 Name: MACKAY AERO Lat: -21.17 Lon: 149.18 Height: 5.3 m
Data from the previous 72 hours. | See also: Recent months at Mackay Airport
Date/Time
EST
Temp
°C
App
Temp
°C
Dew
Point
°C
Rel
Hum
%
Delta-T
°C
Wind Press
QNH
hPa
Press
MSL
hPa
Rain since
9am
mm
Dir  Spd
km/h
Gust
km/h
Spd
kts
Gust
kts
26/03:30pm 26.2 25.9 18.3 61 5.0 NE 17 24 9 13 1013.1 1013.1 0.0
26/03:00pm 27.2 27.1 19.5 62 5.0 NE 19 28 10 15 1012.9 1012.9 0.0
26/02:30pm 27.2 26.8 19.3 62 5.1 NNE 20 30 11 16 1013.0 1013.0 0.0
26/02:00pm 27.0 26.3 19.6 64 4.8 NE 22 30 12 16 1013.3 1013.3 0.0
26/01:30pm 27.2 26.4 20.0 64 4.7 NE 24 30 13 16 1013.8 1013.8 0.0
26/01:00pm 27.1 26.4 19.4 62 5.0 NE 22 32 12 17 1014.3 1014.3 0.0
26/12:30pm 26.6 25.9 19.5 65 4.6 NE 22 30 12 16 1014.7 1014.7 0.0
26/12:00pm 26.8 26.8 20.9 70 3.9 ENE 22 30 12 16 1015.0 1015.0 0.0
26/11:30am 26.8 26.1 20.2 67 4.3 NE 24 28 13 15 1015.5 1015.5 0.0
26/11:00am 26.5 27.1 21.3 73 3.4 NE 20 28 11 15 1015.9 1015.9 0.0
26/10:30am 26.7 27.0 21.5 73 3.5 NE 22 28 12 15 1016.2 1016.2 0.0
26/10:00am 26.8 27.4 21.3 72 3.6 ENE 20 28 11 15 1016.3 1016.3 0.0
26/09:30am 25.8 26.2 20.6 73 3.4 ENE 19 24 10 13 1016.4 1016.4 0.0
26/09:00am 25.9 27.3 21.1 75 3.2 E 15 24 8 13 1016.4 1016.4 0.0
26/08:30am 25.0 26.0 21.1 79 2.6 E 17 22 9 12 1016.2 1016.2 0.0
26/08:00am 25.4 26.4 21.1 77 2.8 ENE 17 20 9 11 1016.0 1016.0 0.0
26/07:36am 24.1 25.7 20.8 82 2.2 ENE 13 19 7 10 1015.7 1015.7 0.0
26/07:30am 24.1 25.9 21.2 84 1.9 ENE 13 19 7 10 1015.7 1015.7 0.0
26/07:02am 22.1 26.5 21.4 96 0.5 CALM 0 0 0 0 1015.5 1015.5 0.0
26/07:00am 22.1 26.6 21.6 97 0.3 CALM 0 0 0 0 1015.4 1015.4 0.0
26/06:30am 20.5 23.0 19.8 96 0.4 E 6 7 3 4 1015.0 1015.0 0.0
26/06:00am 19.8 22.0 19.1 96 0.4 SSW 6 9 3 5 1014.9 1014.9 0.0
26/05:30am 20.4 22.8 19.6 95 0.5 SSW 6 7 3 4 1014.5 1014.5 0.0
26/05:00am 20.5 22.9 19.7 95 0.5 SSW 6 7 3 4 1014.3 1014.3 0.0
26/04:30am 20.9 23.4 19.9 94 0.6 NNE 6 7 3 4 1014.0 1014.0 0.0
26/04:00am 21.3 23.7 20.1 93 0.8 NNE 7 7 4 4 1014.1 1014.1 0.0
26/03:30am 21.6 25.5 20.4 93 0.8 CALM 0 0 0 0 1014.0 1014.0 0.0
26/03:00am 21.9 24.7 20.5 92 0.9 NNE 6 7 3 4 1014.0 1014.0 0.0
26/02:30am 22.4 24.8 20.1 87 1.5 NE 7 9 4 5 1014.3 1014.3 0.0
26/02:00am 22.6 25.2 20.5 88 1.4 NE 7 9 4 5 1014.4 1014.4 0.0
26/01:30am 23.3 25.4 21.0 87 1.5 NNE 11 13 6 7 1014.7 1014.7 0.0
26/01:00am 23.4 25.5 20.9 86 1.6 NE 11 15 6 8 1015.1 1015.1 0.0
26/12:30am 23.3 25.4 21.0 87 1.5 NE 11 13 6 7 1015.3 1015.3 0.0
26/12:00am 23.3 25.5 21.2 88 1.4 NE 11 15 6 8 1015.5 1015.5 0.0
 
Date/Time
EST
Temp
°C
App
Temp
°C
Dew
Point
°C
Rel
Hum
%
Delta-T
°C
Wind Press
QNH
hPa
Press
MSL
hPa
Rain since
9am
mm
Dir  Spd
km/h
Gust
km/h
Spd
kts
Gust
kts
25/11:38pm 23.4 25.3 21.3 88 1.4 ENE 13 19 7 10 1015.4 1015.4 0.0
25/11:30pm 23.4 25.3 21.3 88 1.4 NE 13 17 7 9 1015.5 1015.5 0.0
25/11:27pm 23.4 25.3 21.3 88 1.4 NE 13 17 7 9 1015.5 1015.5 0.0
25/11:00pm 23.4 25.3 21.3 88 1.4 NE 13 19 7 10 1015.4 1015.4 0.0
25/10:34pm 23.4 24.8 21.1 87 1.5 NE 15 20 8 11 1015.5 1015.5 0.0
25/10:30pm 23.4 25.2 21.1 87 1.5 NE 13 20 7 11 1015.5 1015.5 0.0
25/10:08pm 23.6 25.5 21.3 87 1.5 NE 13 19 7 10 1015.6 1015.6 0.0
25/10:04pm 23.5 25.3 21.2 87 1.5 NE 13 17 7 9 1015.6 1015.6 0.0
25/10:00pm 23.6 25.5 21.3 87 1.5 NE 13 17 7 9 1015.6 1015.6 0.0
25/09:30pm 23.8 25.4 21.5 87 1.5 NE 15 20 8 11 1015.7 1015.7 0.0
25/09:13pm 23.9 25.6 21.6 87 1.5 NE 15 19 8 10 1015.6 1015.6 0.0
25/09:00pm 23.8 25.3 21.3 86 1.6 NE 15 20 8 11 1015.6 1015.6 0.0
25/08:30pm 23.9 25.1 21.4 86 1.6 NE 17 20 9 11 1015.2 1015.2 0.0
25/08:00pm 23.8 24.9 21.3 86 1.6 ENE 17 22 9 12 1014.9 1014.9 0.0
25/07:30pm 23.8 24.4 21.3 86 1.6 NE 20 24 11 13 1014.3 1014.3 0.0
25/07:17pm 23.9 24.7 21.4 86 1.6 NE 19 24 10 13 1014.2 1014.2 0.0
25/07:00pm 23.9 24.7 21.4 86 1.6 ENE 19 24 10 13 1014.2 1014.2 0.0
25/06:30pm 23.9 25.2 21.6 87 1.5 ENE 17 20 9 11 1014.0 1014.0 0.0
25/06:00pm 24.0 25.0 21.7 87 1.5 ENE 19 24 10 13 1013.3 1013.3 0.0
25/05:30pm 24.3 25.7 21.8 86 1.7 ENE 17 20 9 11 1013.1 1013.1 0.0
25/05:00pm 24.6 25.6 21.7 84 1.9 ENE 19 24 10 13 1012.9 1012.9 0.0
25/04:30pm 25.1 25.9 21.4 80 2.4 ENE 19 24 10 13 1012.8 1012.8 0.0
25/04:00pm 25.2 26.2 21.7 81 2.3 ENE 19 24 10 13 1012.6 1012.6 0.0
25/03:30pm 26.5 27.5 22.8 80 2.5 ENE 22 28 12 15 1012.7 1012.7 0.0
25/03:00pm 25.8 26.3 21.9 79 2.6 ENE 22 30 12 16 1012.8 1012.8 0.0
25/02:56pm 25.9 26.1 21.3 76 3.0 ENE 22 30 12 16 1012.9 1012.9 0.0
25/02:30pm 26.5 27.0 21.9 76 3.1 ENE 22 28 12 15 1013.0 1013.0 0.0
25/02:00pm 26.6 26.8 22.0 76 3.1 ENE 24 30 13 16 1013.2 1013.2 0.0
25/01:30pm 26.7 27.0 22.3 77 3.0 ENE 24 32 13 17 1013.6 1013.6 0.0
25/01:00pm 27.1 27.4 22.3 75 3.2 E 24 32 13 17 1014.0 1014.0 0.0
25/12:30pm 27.3 27.8 22.7 76 3.1 ENE 24 30 13 16 1014.4 1014.4 0.0
25/12:00pm 26.8 27.0 22.0 75 3.2 ENE 24 32 13 17 1014.7 1014.7 0.0
25/11:30am 27.3 28.1 22.5 75 3.2 ENE 22 28 12 15 1015.0 1015.0 0.0
25/11:00am 26.9 27.7 22.5 77 3.0 ENE 22 32 12 17 1015.4 1015.4 0.0
25/10:30am 26.9 27.8 21.9 74 3.3 ENE 20 26 11 14 1015.4 1015.4 0.0
25/10:00am 26.7 27.7 22.1 76 3.1 ENE 20 28 11 15 1015.7 1015.7 0.0
25/09:30am 26.3 27.0 21.5 75 3.2 ENE 20 30 11 16 1015.8 1015.8 0.0
25/09:04am 26.1 27.1 21.7 77 2.9 E 19 24 10 13 1015.8 1015.8 0.0
25/09:00am 26.3 27.1 21.7 76 3.1 E 20 24 11 13 1015.8 1015.8 0.0
25/08:30am 25.8 27.8 21.5 77 2.9 ENE 13 19 7 10 1015.7 1015.7 0.0
25/08:00am 25.0 27.2 21.9 83 2.1 ENE 13 19 7 10 1015.5 1015.5 0.0
25/07:30am 22.3 25.8 21.8 97 0.3 WNW 6 7 3 4 1015.2 1015.2 0.0
25/07:01am 21.3 24.1 20.8 97 0.3 WNW 7 9 4 5 1014.8 1014.8 0.0
25/07:00am 21.3 24.3 20.8 97 0.3 WNW 6 9 3 5 1014.8 1014.8 0.0
25/06:46am 21.6 24.6 21.3 98 0.2 WNW 7 9 4 5 1014.6 1014.6 0.0
25/06:30am 20.1 23.2 19.6 97 0.3 WNW 2 6 1 3 1014.3 1014.3 0.0
25/06:29am 20.0 22.7 19.5 97 0.3 WNW 4 6 2 3 1014.3 1014.3 0.0
25/06:00am 19.9 23.3 19.4 97 0.3 CALM 0 0 0 0 1014.0 1014.0 0.0
25/05:30am 19.3 22.4 18.6 96 0.4 CALM 0 0 0 0 1013.7 1013.7 0.0
25/05:28am 19.2 22.2 18.5 96 0.4 CALM 0 0 0 0 1013.7 1013.7 0.0
25/05:21am 19.7 23.0 19.0 96 0.4 CALM 0 0 0 0 1013.7 1013.7 0.0
25/05:05am 20.0 23.1 19.5 97 0.3 WNW 2 6 1 3 1013.5 1013.5 0.0
25/05:00am 19.8 22.3 19.1 96 0.4 WNW 4 7 2 4 1013.5 1013.5 0.0
25/04:57am 19.7 21.8 18.9 95 0.5 WNW 6 7 3 4 1013.4 1013.4 0.0
25/04:54am 20.2 22.5 19.5 96 0.4 WNW 6 7 3 4 1013.4 1013.4 0.0
25/04:30am 19.9 21.9 19.2 96 0.4 WNW 7 9 4 5 1013.2 1013.2 0.0
25/04:12am 20.4 24.0 19.7 96 0.4 CALM 0 7 0 4 1013.1 1013.1 0.0
25/04:00am 20.6 24.3 19.9 96 0.4 CALM 0 0 0 0 1012.9 1012.9 0.0
25/03:53am 20.3 23.8 19.5 95 0.5 CALM 0 0 0 0 1012.9 1012.9 0.0
25/03:50am 20.1 23.5 19.3 95 0.5 CALM 0 0 0 0 1012.9 1012.9 0.0
25/03:30am 20.5 22.9 19.7 95 0.5 WNW 6 7 3 4 1012.9 1012.9 0.0
25/03:06am 20.7 23.0 19.9 95 0.5 WNW 7 9 4 5 1012.8 1012.8 0.0
25/03:00am 20.9 23.3 20.1 95 0.5 WNW 7 9 4 5 1012.8 1012.8 0.0
25/02:30am 20.9 24.1 19.7 93 0.8 WNW 2 7 1 4 1013.0 1013.0 0.0
25/02:00am 21.1 23.6 19.9 93 0.8 WNW 6 7 3 4 1013.3 1013.3 0.0
25/01:30am 22.0 25.0 20.8 93 0.8 WNW 6 7 3 4 1013.4 1013.4 0.0
25/01:19am 22.1 25.5 20.9 93 0.8 WNW 4 7 2 4 1013.4 1013.4 0.0
25/01:00am 22.6 26.0 21.6 94 0.7 NW 6 7 3 4 1013.6 1013.6 0.0
25/12:43am 22.3 26.6 21.1 93 0.8 CALM 0 6 0 3 1013.8 1013.8 0.0
25/12:30am 22.2 25.5 20.8 92 0.9 N 4 7 2 4 1013.9 1013.9 0.0
25/12:27am 22.4 25.5 21.0 92 0.9 NNE 6 7 3 4 1013.9 1013.9 0.0
25/12:00am 22.7 25.9 21.3 92 0.9 NNE 6 7 3 4 1014.1 1014.1 0.0
 
Date/Time
EST
Temp
°C
App
Temp
°C
Dew
Point
°C
Rel
Hum
%
Delta-T
°C
Wind Press
QNH
hPa
Press
MSL
hPa
Rain since
9am
mm
Dir  Spd
km/h
Gust
km/h
Spd
kts
Gust
kts
24/11:57pm 22.8 25.9 21.4 92 0.9 NNE 7 9 4 5 1014.1 1014.1 0.0
24/11:30pm 23.0 25.4 21.5 91 1.0 NE 11 13 6 7 1014.1 1014.1 0.0
24/11:00pm 23.2 25.5 21.3 89 1.2 NE 11 13 6 7 1014.4 1014.4 0.0
24/10:51pm 23.3 25.5 21.2 88 1.4 NE 11 15 6 8 1014.4 1014.4 0.0
24/10:30pm 23.7 26.0 21.4 87 1.5 NE 11 15 6 8 1014.4 1014.4 0.0
24/10:00pm 23.6 26.5 21.7 89 1.3 ENE 9 11 5 6 1014.4 1014.4 0.0
24/09:30pm 23.3 26.0 21.4 89 1.3 ENE 9 13 5 7 1014.4 1014.4 0.0
24/09:00pm 23.6 25.7 21.7 89 1.3 ENE 13 17 7 9 1014.2 1014.2 0.0
24/08:49pm 23.7 26.2 21.8 89 1.3 E 11 17 6 9 1014.1 1014.1 0.0
24/08:30pm 23.6 25.6 21.5 88 1.4 ENE 13 17 7 9 1013.9 1013.9 0.0
24/08:14pm 23.7 25.7 21.6 88 1.4 ENE 13 17 7 9 1013.8 1013.8 0.0
24/08:00pm 23.4 25.8 21.5 89 1.3 ENE 11 15 6 8 1013.6 1013.6 0.0
24/07:57pm 23.3 25.6 21.4 89 1.3 ENE 11 17 6 9 1013.6 1013.6 0.0
24/07:50pm 23.4 25.4 21.5 89 1.3 ENE 13 17 7 9 1013.5 1013.5 0.0
24/07:34pm 23.6 25.5 21.3 87 1.5 ENE 13 17 7 9 1013.3 1013.3 0.0
24/07:33pm 23.6 25.5 21.3 87 1.5 ENE 13 19 7 10 1013.3 1013.3 0.0
24/07:30pm 23.6 25.5 21.3 87 1.5 ENE 13 19 7 10 1013.3 1013.3 0.0
24/07:18pm 23.6 25.6 21.5 88 1.4 ENE 13 17 7 9 1013.2 1013.2 0.0
24/07:16pm 23.7 25.7 21.6 88 1.4 ENE 13 17 7 9 1013.1 1013.1 0.0
24/07:00pm 23.7 25.3 21.4 87 1.5 NE 15 20 8 11 1013.0 1013.0 0.0
24/06:30pm 23.4 25.2 21.1 87 1.5 ENE 13 19 7 10 1012.6 1012.6 0.0
24/06:00pm 23.2 25.2 20.7 86 1.6 ENE 11 13 6 7 1012.1 1012.1 0.0
24/05:51pm 23.3 25.2 20.6 85 1.8 E 11 13 6 7 1012.1 1012.1 0.0
24/05:45pm 23.4 25.4 20.7 85 1.8 E 11 13 6 7 1011.9 1011.9 0.0
24/05:30pm 23.6 25.1 20.5 83 2.0 ENE 13 17 7 9 1011.8 1011.8 0.0
24/05:00pm 23.9 25.4 20.6 82 2.2 E 13 17 7 9 1011.5 1011.5 0.0
24/04:30pm 24.1 24.8 21.2 84 1.9 E 19 22 10 12 1011.1 1011.1 0.0
24/04:09pm 24.6 24.8 21.3 82 2.2 E 22 30 12 16 1010.8 1010.8 0.0
24/04:00pm 24.8 25.1 21.5 82 2.2 E 22 28 12 15 1010.7 1010.7 0.0
24/03:30pm 25.6 25.5 21.5 78 2.7 E 24 33 13 18 1010.7 1010.7 0.0
24/03:00pm 26.3 26.2 21.5 75 3.2 E 24 32 13 17 1010.7 1010.7 0.0
24/02:30pm 26.3 25.8 22.2 78 2.8 E 28 33 15 18 1010.7 1010.7 0.0
24/02:00pm 26.4 25.5 21.4 74 3.3 E 28 33 15 18 1010.9 1010.9 0.0
24/01:30pm 27.0 26.3 21.1 70 3.9 E 26 32 14 17 1011.1 1011.1 0.0
24/01:00pm 26.6 25.8 21.6 74 3.3 E 28 33 15 18 1011.5 1011.5 0.0
24/12:30pm 27.1 27.0 22.3 75 3.2 E 26 33 14 18 1012.0 1012.0 0.0
24/12:00pm 26.9 27.1 22.1 75 3.2 E 24 30 13 16 1012.5 1012.5 0.0
24/11:30am 26.9 27.5 22.1 75 3.2 E 22 28 12 15 1013.0 1013.0 0.0
24/11:00am 26.8 27.5 21.6 73 3.5 ESE 20 24 11 13 1013.4 1013.4 0.0
24/10:30am 27.1 27.9 21.4 71 3.8 ESE 19 22 10 12 1013.7 1013.7 0.0
24/10:00am 26.3 27.2 20.8 71 3.6 E 17 20 9 11 1014.0 1014.0 0.0
24/09:56am 26.5 28.1 21.5 74 3.3 E 15 20 8 11 1014.0 1014.0 0.0
24/09:30am 25.1 27.3 21.2 79 2.6 ESE 11 17 6 9 1014.1 1014.1 0.0
24/09:00am 24.8 27.2 21.5 82 2.2 SE 11 13 6 7 1014.0 1014.0 0.0
24/08:30am 22.8 25.8 22.0 95 0.5 S 9 13 5 7 1013.9 1013.9 0.0
24/08:10am 22.2 25.2 21.9 98 0.2 SSW 9 11 5 6 1013.7 1013.7 0.0
24/08:00am 22.2 25.2 21.9 98 0.2 SSW 9 11 5 6 1013.7 1013.7 0.0
24/07:35am 21.1 24.1 20.8 98 0.2 WNW 6 9 3 5 1013.5 1013.5 0.0
24/07:30am 20.9 23.8 20.6 98 0.2 WNW 6 9 3 5 1013.5 1013.5 0.0
24/07:00am 21.0 23.7 20.7 98 0.2 WSW 7 9 4 5 1013.2 1013.2 0.0
24/06:30am 20.4 22.8 20.1 98 0.2 SSW 7 9 4 5 1012.8 1012.8 0.0
24/06:00am 19.8 22.0 19.5 98 0.2 SW 7 7 4 4 1012.4 1012.4 0.0
24/05:30am 19.0 20.3 18.5 97 0.3 SW 9 13 5 7 1012.0 1012.0 0.0
24/05:25am 19.0 20.7 18.5 97 0.3 WSW 7 9 4 5 1012.0 1012.0 0.0
24/05:23am 19.0 20.8 18.7 98 0.2 NW 7 9 4 5 1011.9 1011.9 0.0
24/05:16am 18.9 20.3 18.6 98 0.2 N 9 9 5 5 1011.9 1011.9 0.0
24/05:08am 18.9 20.3 18.6 98 0.2 N 9 9 5 5 1011.9 1011.9 0.0
24/05:06am 19.0 20.4 18.7 98 0.2 N 9 11 5 6 1011.9 1011.9 0.0
24/05:05am 18.5 19.7 18.2 98 0.2 N 9 11 5 6 1011.9 1011.9 0.0
24/05:00am 17.8 19.0 17.3 97 0.3 N 7 11 4 6 1011.9 1011.9 0.0
24/04:41am 19.3 22.5 18.8 97 0.3 CALM 0 0 0 0 1011.7 1011.7 0.0
24/04:30am 19.9 23.3 19.4 97 0.3 CALM 0 0 0 0 1011.6 1011.6 0.0
24/04:25am 19.8 23.2 19.3 97 0.3 CALM 0 0 0 0 1011.6 1011.6 0.0
24/04:18am 19.9 23.3 19.4 97 0.3 CALM 0 0 0 0 1011.6 1011.6 0.0
24/04:00am 19.2 22.2 18.5 96 0.4 CALM 0 4 0 2 1011.4 1011.4 0.0
24/03:51am 19.3 22.1 18.8 97 0.3 N 2 6 1 3 1011.3 1011.3 0.0
24/03:33am 19.0 21.2 18.3 96 0.4 NNE 4 7 2 4 1011.4 1011.4 0.0
24/03:30am 18.7 21.0 17.7 94 0.6 ESE 2 7 1 4 1011.4 1011.4 0.0
24/03:16am 19.6 22.8 18.9 96 0.4 CALM 0 0 0 0 1011.4 1011.4 0.0
24/03:12am 19.7 22.9 18.9 95 0.5 CALM 0 0 0 0 1011.5 1011.5 0.0
24/03:00am 20.2 23.7 19.5 96 0.4 CALM 0 4 0 2 1011.5 1011.5 0.0
24/02:30am 20.3 22.5 19.5 95 0.5 SE 7 9 4 5 1011.7 1011.7 0.0
24/02:00am 20.4 22.1 19.4 94 0.6 WSW 9 11 5 6 1011.9 1011.9 0.0
24/01:30am 21.1 23.7 20.1 94 0.6 W 6 11 3 6 1012.1 1012.1 0.0
24/01:10am 21.1 23.2 20.1 94 0.6 SW 9 9 5 5 1012.2 1012.2 0.0
24/01:00am 21.2 23.7 20.2 94 0.6 SSW 7 9 4 5 1012.3 1012.3 0.0
24/12:30am 21.0 23.1 20.2 95 0.5 SW 9 11 5 6 1012.5 1012.5 0.0
24/12:00am 20.7 22.7 20.0 96 0.4 SSW 9 9 5 5 1012.6 1012.6 0.0
 
Date/Time
EST
Temp
°C
App
Temp
°C
Dew
Point
°C
Rel
Hum
%
Delta-T
°C
Wind Press
QNH
hPa
Press
MSL
hPa
Rain since
9am
mm
Dir  Spd
km/h
Gust
km/h
Spd
kts
Gust
kts
23/11:32pm 20.1 22.4 19.4 96 0.4 SSW 6 7 3 4 1012.8 1012.8 0.0
23/11:30pm 20.2 22.5 19.5 96 0.4 SW 6 7 3 4 1012.8 1012.8 0.0
23/11:00pm 20.5 22.7 19.7 95 0.5 WNW 7 9 4 5 1012.7 1012.7 0.0
23/10:30pm 20.5 24.1 19.7 95 0.5 CALM 0 0 0 0 1012.9 1012.9 0.0
23/10:00pm 20.8 24.1 20.0 95 0.5 NE 2 6 1 3 1012.9 1012.9 0.0
23/09:30pm 20.8 23.3 19.8 94 0.6 NE 6 7 3 4 1013.1 1013.1 0.0
23/09:00pm 21.0 23.5 19.8 93 0.8 NE 6 7 3 4 1013.0 1013.0 0.0
23/08:30pm 21.8 25.8 20.6 93 0.8 CALM 0 0 0 0 1012.6 1012.6 0.0
23/08:00pm 21.8 25.7 20.4 92 0.9 CALM 0 0 0 0 1012.4 1012.4 0.0
23/07:30pm 22.5 25.7 20.6 89 1.2 NNE 4 6 2 3 1012.0 1012.0 0.0
23/07:00pm 23.1 25.8 20.6 86 1.6 NNE 7 9 4 5 1011.5 1011.5 0.0
23/06:30pm 23.5 25.9 20.8 85 1.8 N 9 15 5 8 1011.2 1011.2 0.0
23/06:00pm 23.9 26.0 21.0 84 1.9 NNE 11 19 6 10 1010.9 1010.9 0.0
23/05:30pm 24.8 26.5 20.9 79 2.6 NE 13 17 7 9 1010.6 1010.6 0.0
23/05:00pm 24.9 25.9 21.0 79 2.6 NE 17 19 9 10 1010.3 1010.3 0.0
23/04:30pm 25.6 26.4 20.6 74 3.3 NE 17 24 9 13 1009.9 1009.9 0.0
23/04:00pm 25.4 25.4 20.2 73 3.4 NE 20 24 11 13 1009.6 1009.6 0.0

Other formats

Comma delimited format used in spreadsheet applications
http://www.bom.gov.au/fwo/IDQ60801/IDQ60801.95367.axf

JavaScript Object Notation format (JSON) in row-major order
http://www.bom.gov.au/fwo/IDQ60801/IDQ60801.95367.json

Data quality

Most of these data are generated automatically and are frequently updated. Quality checks on data are not normally performed. It is possible for incorrect values to appear. Refer to information at About Latest Weather Observations and please check the disclaimer before using these data.